sensor_id;sensor_type;location;lat;lon;timestamp;pressure;altitude;pressure_sealevel;temperature;humidity
86089;BME280;76699;52.232;5.176;2024-03-29T00:00:26;98905.22;;;8.86;61.73
86089;BME280;76699;52.232;5.176;2024-03-29T00:02:51;98909.06;;;8.83;61.85
86089;BME280;76699;52.232;5.176;2024-03-29T00:05:16;98906.41;;;8.83;61.74
86089;BME280;76699;52.232;5.176;2024-03-29T00:07:41;98903.34;;;8.80;61.80
86089;BME280;76699;52.232;5.176;2024-03-29T00:10:07;98904.53;;;8.77;61.91
86089;BME280;76699;52.232;5.176;2024-03-29T00:12:32;98910.09;;;8.82;61.76
86089;BME280;76699;52.232;5.176;2024-03-29T00:14:58;98914.16;;;8.78;61.91
86089;BME280;76699;52.232;5.176;2024-03-29T00:17:23;98909.84;;;8.77;61.80
86089;BME280;76699;52.232;5.176;2024-03-29T00:19:48;98903.72;;;8.77;61.98
86089;BME280;76699;52.232;5.176;2024-03-29T00:22:13;98905.09;;;8.72;61.93
86089;BME280;76699;52.232;5.176;2024-03-29T00:24:39;98904.22;;;8.65;62.01
86089;BME280;76699;52.232;5.176;2024-03-29T00:27:04;98915.69;;;8.66;62.01
86089;BME280;76699;52.232;5.176;2024-03-29T00:29:30;98914.66;;;8.67;61.98
86089;BME280;76699;52.232;5.176;2024-03-29T00:31:56;98917.94;;;8.69;61.92
86089;BME280;76699;52.232;5.176;2024-03-29T00:34:22;98915.28;;;8.69;61.98
86089;BME280;76699;52.232;5.176;2024-03-29T00:36:47;98917.56;;;8.72;61.73
86089;BME280;76699;52.232;5.176;2024-03-29T00:39:12;98915.91;;;8.71;61.83
86089;BME280;76699;52.232;5.176;2024-03-29T00:41:38;98921.44;;;8.69;61.88
86089;BME280;76699;52.232;5.176;2024-03-29T00:44:03;98920.41;;;8.70;61.71
86089;BME280;76699;52.232;5.176;2024-03-29T00:46:28;98915.09;;;8.70;61.90
86089;BME280;76699;52.232;5.176;2024-03-29T00:48:54;98929.19;;;8.71;61.77
86089;BME280;76699;52.232;5.176;2024-03-29T00:51:19;98923.97;;;8.78;61.36
86089;BME280;76699;52.232;5.176;2024-03-29T00:53:45;98927.81;;;8.75;61.59
86089;BME280;76699;52.232;5.176;2024-03-29T00:56:10;98929.09;;;8.79;61.34
86089;BME280;76699;52.232;5.176;2024-03-29T00:58:36;98937.78;;;8.73;61.54
86089;BME280;76699;52.232;5.176;2024-03-29T01:01:01;98929.59;;;8.68;61.36
86089;BME280;76699;52.232;5.176;2024-03-29T01:03:27;98937.13;;;8.64;61.97
86089;BME280;76699;52.232;5.176;2024-03-29T01:05:55;98938.91;;;8.57;61.95
86089;BME280;76699;52.232;5.176;2024-03-29T01:08:20;98936.81;;;8.53;61.98
86089;BME280;76699;52.232;5.176;2024-03-29T01:10:46;98930.47;;;8.54;61.99
86089;BME280;76699;52.232;5.176;2024-03-29T01:13:11;98938.38;;;8.47;62.30
86089;BME280;76699;52.232;5.176;2024-03-29T01:15:36;98941.44;;;8.44;62.43
86089;BME280;76699;52.232;5.176;2024-03-29T01:18:02;98940.63;;;8.43;62.47
86089;BME280;76699;52.232;5.176;2024-03-29T01:20:27;98931.63;;;8.44;62.43
86089;BME280;76699;52.232;5.176;2024-03-29T01:22:52;98938.50;;;8.39;62.85
86089;BME280;76699;52.232;5.176;2024-03-29T01:25:17;98938.16;;;8.42;62.36
86089;BME280;76699;52.232;5.176;2024-03-29T01:27:43;98923.22;;;8.41;62.51
86089;BME280;76699;52.232;5.176;2024-03-29T01:30:09;98925.22;;;8.39;62.67
86089;BME280;76699;52.232;5.176;2024-03-29T01:32:34;98921.41;;;8.41;62.75
86089;BME280;76699;52.232;5.176;2024-03-29T01:34:59;98932.38;;;8.38;62.81
86089;BME280;76699;52.232;5.176;2024-03-29T01:37:25;98931.09;;;8.34;62.80
86089;BME280;76699;52.232;5.176;2024-03-29T01:39:51;98931.47;;;8.31;63.27
86089;BME280;76699;52.232;5.176;2024-03-29T01:42:16;98929.81;;;8.30;63.12
86089;BME280;76699;52.232;5.176;2024-03-29T01:44:42;98925.09;;;8.26;63.36
86089;BME280;76699;52.232;5.176;2024-03-29T01:47:07;98924.91;;;8.27;63.54
86089;BME280;76699;52.232;5.176;2024-03-29T01:49:33;98912.00;;;8.24;63.13
86089;BME280;76699;52.232;5.176;2024-03-29T01:51:59;98902.75;;;8.20;63.44
86089;BME280;76699;52.232;5.176;2024-03-29T01:54:24;98905.22;;;8.22;63.81
86089;BME280;76699;52.232;5.176;2024-03-29T01:56:50;98888.94;;;8.25;63.33
86089;BME280;76699;52.232;5.176;2024-03-29T01:59:16;98880.50;;;8.21;63.61
86089;BME280;76699;52.232;5.176;2024-03-29T02:01:42;98889.47;;;8.20;63.44
86089;BME280;76699;52.232;5.176;2024-03-29T02:04:09;98883.09;;;8.14;63.71
86089;BME280;76699;52.232;5.176;2024-03-29T02:06:37;98892.91;;;8.14;63.75
86089;BME280;76699;52.232;5.176;2024-03-29T02:09:03;98900.03;;;8.13;64.01
86089;BME280;76699;52.232;5.176;2024-03-29T02:11:29;98904.91;;;8.10;63.72
86089;BME280;76699;52.232;5.176;2024-03-29T02:13:54;98906.09;;;8.07;64.03
86089;BME280;76699;52.232;5.176;2024-03-29T02:16:19;98898.16;;;8.07;64.03
86089;BME280;76699;52.232;5.176;2024-03-29T02:18:45;98900.81;;;8.07;64.20
86089;BME280;76699;52.232;5.176;2024-03-29T02:21:11;98915.09;;;8.06;64.22
86089;BME280;76699;52.232;5.176;2024-03-29T02:23:40;98913.06;;;8.08;64.20
86089;BME280;76699;52.232;5.176;2024-03-29T02:26:06;98917.75;;;8.06;64.19
86089;BME280;76699;52.232;5.176;2024-03-29T02:28:32;98911.41;;;8.07;64.21
86089;BME280;76699;52.232;5.176;2024-03-29T02:30:57;98914.69;;;8.09;64.16
86089;BME280;76699;52.232;5.176;2024-03-29T02:33:22;98919.81;;;8.11;64.05
86089;BME280;76699;52.232;5.176;2024-03-29T02:35:48;98930.63;;;8.09;64.12
86089;BME280;76699;52.232;5.176;2024-03-29T02:38:13;98918.56;;;8.07;64.24
86089;BME280;76699;52.232;5.176;2024-03-29T02:40:38;98929.53;;;8.04;64.26
86089;BME280;76699;52.232;5.176;2024-03-29T02:43:04;98923.03;;;8.06;64.23
86089;BME280;76699;52.232;5.176;2024-03-29T02:45:29;98928.69;;;8.03;64.30
86089;BME280;76699;52.232;5.176;2024-03-29T02:47:54;98934.56;;;7.99;64.30
86089;BME280;76699;52.232;5.176;2024-03-29T02:50:20;98934.56;;;7.99;64.35
86089;BME280;76699;52.232;5.176;2024-03-29T02:52:45;98935.13;;;7.94;64.54
86089;BME280;76699;52.232;5.176;2024-03-29T02:55:10;98935.13;;;7.94;64.35
86089;BME280;76699;52.232;5.176;2024-03-29T02:57:37;98943.28;;;7.93;64.74
86089;BME280;76699;52.232;5.176;2024-03-29T03:00:04;98938.16;;;7.91;64.54
86089;BME280;76699;52.232;5.176;2024-03-29T03:02:30;98943.66;;;7.90;64.65
86089;BME280;76699;52.232;5.176;2024-03-29T03:04:55;98938.16;;;7.91;64.54
86089;BME280;76699;52.232;5.176;2024-03-29T03:07:20;98940.00;;;7.91;64.61
86089;BME280;76699;52.232;5.176;2024-03-29T03:10:04;98939.00;;;7.92;64.48
86089;BME280;76699;52.232;5.176;2024-03-29T03:12:48;98933.88;;;7.90;64.57
86089;BME280;76699;52.232;5.176;2024-03-29T03:15:13;98927.56;;;7.91;64.48
86089;BME280;76699;52.232;5.176;2024-03-29T03:17:38;98945.31;;;7.91;64.59
86089;BME280;76699;52.232;5.176;2024-03-29T03:20:04;98937.50;;;7.89;64.70
86089;BME280;76699;52.232;5.176;2024-03-29T03:22:32;98955.34;;;7.95;64.25
86089;BME280;76699;52.232;5.176;2024-03-29T03:24:57;98942.53;;;7.99;63.99
86089;BME280;76699;52.232;5.176;2024-03-29T03:27:22;98945.44;;;8.04;63.95
86089;BME280;76699;52.232;5.176;2024-03-29T03:29:48;98954.88;;;8.06;63.81
86089;BME280;76699;52.232;5.176;2024-03-29T03:32:14;98956.53;;;8.07;63.84
86089;BME280;76699;52.232;5.176;2024-03-29T03:34:39;98944.53;;;8.11;63.58
86089;BME280;76699;52.232;5.176;2024-03-29T03:37:05;98946.81;;;8.14;63.56
86089;BME280;76699;52.232;5.176;2024-03-29T03:39:30;98949.44;;;8.14;63.03
86089;BME280;76699;52.232;5.176;2024-03-29T03:41:55;98953.38;;;8.19;63.02
86089;BME280;76699;52.232;5.176;2024-03-29T03:44:21;98959.94;;;8.23;63.05
86089;BME280;76699;52.232;5.176;2024-03-29T03:46:49;98954.00;;;8.21;62.96
86089;BME280;76699;52.232;5.176;2024-03-29T03:49:14;98961.78;;;8.22;62.87
86089;BME280;76699;52.232;5.176;2024-03-29T03:51:39;98950.34;;;8.22;63.01
86089;BME280;76699;52.232;5.176;2024-03-29T03:54:04;98942.38;;;8.22;63.14
86089;BME280;76699;52.232;5.176;2024-03-29T03:56:30;98957.94;;;8.25;63.01
86089;BME280;76699;52.232;5.176;2024-03-29T03:58:55;98952.63;;;8.25;62.80
86089;BME280;76699;52.232;5.176;2024-03-29T04:01:20;98951.44;;;8.27;62.88
86089;BME280;76699;52.232;5.176;2024-03-29T04:03:46;98960.22;;;8.28;62.97
86089;BME280;76699;52.232;5.176;2024-03-29T04:06:11;98955.53;;;8.30;63.08
86089;BME280;76699;52.232;5.176;2024-03-29T04:08:36;98967.63;;;8.32;62.71
86089;BME280;76699;52.232;5.176;2024-03-29T04:11:05;98969.44;;;8.32;62.79
86089;BME280;76699;52.232;5.176;2024-03-29T04:13:30;98968.44;;;8.33;62.71
86089;BME280;76699;52.232;5.176;2024-03-29T04:16:06;98970.94;;;8.34;62.74
86089;BME280;76699;52.232;5.176;2024-03-29T04:18:34;98959.09;;;8.37;62.74
86089;BME280;76699;52.232;5.176;2024-03-29T04:21:01;98961.13;;;8.35;62.85
86089;BME280;76699;52.232;5.176;2024-03-29T04:23:27;98959.09;;;8.37;62.76
86089;BME280;76699;52.232;5.176;2024-03-29T04:25:53;98966.06;;;8.38;63.03
86089;BME280;76699;52.232;5.176;2024-03-29T04:28:18;98962.59;;;8.37;63.21
86089;BME280;76699;52.232;5.176;2024-03-29T04:30:57;98960.75;;;8.38;63.20
86089;BME280;76699;52.232;5.176;2024-03-29T04:33:23;98961.56;;;8.38;63.13
86089;BME280;76699;52.232;5.176;2024-03-29T04:35:58;98960.03;;;8.44;63.05
86089;BME280;76699;52.232;5.176;2024-03-29T04:38:24;98966.97;;;8.45;63.12
86089;BME280;76699;52.232;5.176;2024-03-29T04:40:51;98966.97;;;8.45;63.21
86089;BME280;76699;52.232;5.176;2024-03-29T04:43:17;98958.63;;;8.48;63.21
86089;BME280;76699;52.232;5.176;2024-03-29T04:45:46;98963.34;;;8.53;62.64
86089;BME280;76699;52.232;5.176;2024-03-29T04:48:12;98960.69;;;8.53;63.15
86089;BME280;76699;52.232;5.176;2024-03-29T04:50:38;98961.72;;;8.52;63.34
86089;BME280;76699;52.232;5.176;2024-03-29T04:53:03;98963.34;;;8.53;63.33
86089;BME280;76699;52.232;5.176;2024-03-29T04:55:29;98956.22;;;8.53;63.34
86089;BME280;76699;52.232;5.176;2024-03-29T04:57:55;98964.19;;;8.53;63.45
86089;BME280;76699;52.232;5.176;2024-03-29T05:00:20;98973.78;;;8.54;63.40
86089;BME280;76699;52.232;5.176;2024-03-29T05:02:45;98983.41;;;8.55;63.56
86089;BME280;76699;52.232;5.176;2024-03-29T05:05:11;98975.91;;;8.59;63.59
86089;BME280;76699;52.232;5.176;2024-03-29T05:07:36;98986.72;;;8.57;64.01
86089;BME280;76699;52.232;5.176;2024-03-29T05:10:01;98981.75;;;8.54;64.12
86089;BME280;76699;52.232;5.176;2024-03-29T05:12:31;98989.19;;;8.59;63.90
86089;BME280;76699;52.232;5.176;2024-03-29T05:14:57;98981.41;;;8.57;64.23
86089;BME280;76699;52.232;5.176;2024-03-29T05:17:22;98992.19;;;8.56;64.72
86089;BME280;76699;52.232;5.176;2024-03-29T05:19:50;98990.53;;;8.55;64.89
86089;BME280;76699;52.232;5.176;2024-03-29T05:22:16;98994.84;;;8.56;64.93
86089;BME280;76699;52.232;5.176;2024-03-29T05:24:41;98986.88;;;8.56;65.00
86089;BME280;76699;52.232;5.176;2024-03-29T05:27:06;98986.06;;;8.55;64.89
86089;BME280;76699;52.232;5.176;2024-03-29T05:29:31;98990.94;;;8.52;65.52
86089;BME280;76699;52.232;5.176;2024-03-29T05:31:57;99007.50;;;8.54;65.22
86089;BME280;76699;52.232;5.176;2024-03-29T05:34:22;99004.84;;;8.54;65.55
86089;BME280;76699;52.232;5.176;2024-03-29T05:36:48;98994.41;;;8.52;65.79
86089;BME280;76699;52.232;5.176;2024-03-29T05:39:13;98994.78;;;8.49;66.45
86089;BME280;76699;52.232;5.176;2024-03-29T05:41:40;98994.72;;;8.42;67.53
86089;BME280;76699;52.232;5.176;2024-03-29T05:44:06;99002.06;;;8.40;67.89
86089;BME280;76699;52.232;5.176;2024-03-29T05:46:31;98998.31;;;8.35;69.12
86089;BME280;76699;52.232;5.176;2024-03-29T05:48:56;99009.28;;;8.32;69.74
86089;BME280;76699;52.232;5.176;2024-03-29T05:51:22;99012.50;;;8.27;70.09
86089;BME280;76699;52.232;5.176;2024-03-29T05:53:47;99009.56;;;8.22;71.31
86089;BME280;76699;52.232;5.176;2024-03-29T05:56:12;99023.84;;;8.21;71.61
86089;BME280;76699;52.232;5.176;2024-03-29T05:58:38;99022.19;;;8.20;71.42
86089;BME280;76699;52.232;5.176;2024-03-29T06:01:03;99016.56;;;8.08;73.18
86089;BME280;76699;52.232;5.176;2024-03-29T06:03:29;99013.91;;;8.08;73.32
86089;BME280;76699;52.232;5.176;2024-03-29T06:05:54;99018.72;;;8.05;73.52
86089;BME280;76699;52.232;5.176;2024-03-29T06:08:20;99022.78;;;8.01;74.51
86089;BME280;76699;52.232;5.176;2024-03-29T06:10:46;99018.84;;;7.97;74.94
86089;BME280;76699;52.232;5.176;2024-03-29T06:13:11;99029.72;;;7.87;76.49
86089;BME280;76699;52.232;5.176;2024-03-29T06:15:53;99042.47;;;7.77;77.22
86089;BME280;76699;52.232;5.176;2024-03-29T06:18:36;99037.41;;;7.67;78.48
86089;BME280;76699;52.232;5.176;2024-03-29T06:21:02;99034.94;;;7.66;78.71
86089;BME280;76699;52.232;5.176;2024-03-29T06:23:27;99052.41;;;7.60;79.23
86089;BME280;76699;52.232;5.176;2024-03-29T06:25:52;99041.34;;;7.57;80.37
86089;BME280;76699;52.232;5.176;2024-03-29T06:28:18;99030.25;;;7.53;80.27
86089;BME280;76699;52.232;5.176;2024-03-29T06:30:43;99038.13;;;7.46;80.84
86089;BME280;76699;52.232;5.176;2024-03-29T06:33:08;99045.25;;;7.46;81.00
86089;BME280;76699;52.232;5.176;2024-03-29T06:35:34;99052.38;;;7.45;81.25
86089;BME280;76699;52.232;5.176;2024-03-29T06:37:59;99064.91;;;7.51;81.26
86089;BME280;76699;52.232;5.176;2024-03-29T06:40:25;99064.84;;;7.60;80.96
86089;BME280;76699;52.232;5.176;2024-03-29T06:42:50;99066.94;;;7.64;81.05
86089;BME280;76699;52.232;5.176;2024-03-29T06:45:16;99057.44;;;7.70;80.61
86089;BME280;76699;52.232;5.176;2024-03-29T06:47:41;99055.16;;;7.81;80.31
86089;BME280;76699;52.232;5.176;2024-03-29T06:50:07;99052.41;;;8.04;79.82
86089;BME280;76699;52.232;5.176;2024-03-29T06:52:32;99055.81;;;8.13;79.35
86089;BME280;76699;52.232;5.176;2024-03-29T06:54:57;99044.25;;;8.35;79.02
86089;BME280;76699;52.232;5.176;2024-03-29T06:57:23;99038.47;;;8.32;78.28
86089;BME280;76699;52.232;5.176;2024-03-29T06:59:50;99049.88;;;8.62;77.50
86089;BME280;76699;52.232;5.176;2024-03-29T07:02:16;99026.78;;;9.05;76.14
86089;BME280;76699;52.232;5.176;2024-03-29T07:04:41;99039.38;;;9.18;75.41
86089;BME280;76699;52.232;5.176;2024-03-29T07:07:06;99053.94;;;9.22;75.51
86089;BME280;76699;52.232;5.176;2024-03-29T07:09:31;99045.41;;;8.84;75.20
86089;BME280;76699;52.232;5.176;2024-03-29T07:11:57;99044.91;;;8.73;75.18
86089;BME280;76699;52.232;5.176;2024-03-29T07:14:23;99046.13;;;8.92;75.42
86089;BME280;76699;52.232;5.176;2024-03-29T07:16:51;99060.19;;;8.71;75.02
86089;BME280;76699;52.232;5.176;2024-03-29T07:19:17;99056.84;;;9.05;74.35
86089;BME280;76699;52.232;5.176;2024-03-29T07:21:44;99051.16;;;9.30;73.86
86089;BME280;76699;52.232;5.176;2024-03-29T07:24:09;99052.22;;;9.35;73.69
86089;BME280;76699;52.232;5.176;2024-03-29T07:26:35;99051.50;;;9.76;73.23
86089;BME280;76699;52.232;5.176;2024-03-29T07:29:01;99054.63;;;9.86;72.56
86089;BME280;76699;52.232;5.176;2024-03-29T07:31:26;99052.66;;;10.36;70.80
86089;BME280;76699;52.232;5.176;2024-03-29T07:33:52;99062.31;;;11.44;69.43
86089;BME280;76699;52.232;5.176;2024-03-29T07:36:17;99070.72;;;11.88;69.35
86089;BME280;76699;52.232;5.176;2024-03-29T07:38:43;99073.78;;;12.62;68.40
86089;BME280;76699;52.232;5.176;2024-03-29T07:41:11;99079.72;;;11.14;66.43
86089;BME280;76699;52.232;5.176;2024-03-29T07:43:40;99087.91;;;10.99;66.14
86089;BME280;76699;52.232;5.176;2024-03-29T07:46:07;99096.72;;;11.06;67.56
86089;BME280;76699;52.232;5.176;2024-03-29T07:48:34;99093.91;;;11.28;67.19
86089;BME280;76699;52.232;5.176;2024-03-29T07:50:59;99083.97;;;10.75;67.12
86089;BME280;76699;52.232;5.176;2024-03-29T07:53:24;99093.88;;;11.14;66.20
86089;BME280;76699;52.232;5.176;2024-03-29T07:55:50;99097.81;;;11.78;63.58
86089;BME280;76699;52.232;5.176;2024-03-29T07:58:15;99087.16;;;13.01;62.78
86089;BME280;76699;52.232;5.176;2024-03-29T08:00:42;99080.91;;;13.70;62.69
86089;BME280;76699;52.232;5.176;2024-03-29T08:03:08;99080.94;;;13.88;58.45
86089;BME280;76699;52.232;5.176;2024-03-29T08:05:33;99086.22;;;14.86;58.14
86089;BME280;76699;52.232;5.176;2024-03-29T08:07:59;99073.34;;;15.07;56.49
86089;BME280;76699;52.232;5.176;2024-03-29T08:10:24;99072.56;;;15.83;56.93
86089;BME280;76699;52.232;5.176;2024-03-29T08:12:50;99072.63;;;15.53;54.71
86089;BME280;76699;52.232;5.176;2024-03-29T08:15:15;99072.63;;;14.99;52.17
86089;BME280;76699;52.232;5.176;2024-03-29T08:17:43;99054.69;;;14.15;53.68
86089;BME280;76699;52.232;5.176;2024-03-29T08:20:08;99079.91;;;14.26;55.29
86089;BME280;76699;52.232;5.176;2024-03-29T08:22:34;99086.91;;;14.82;55.60
86089;BME280;76699;52.232;5.176;2024-03-29T08:25:00;99092.38;;;15.47;54.36
86089;BME280;76699;52.232;5.176;2024-03-29T08:27:29;99081.91;;;15.15;52.38
86089;BME280;76699;52.232;5.176;2024-03-29T08:29:54;99095.38;;;15.39;52.82
86089;BME280;76699;52.232;5.176;2024-03-29T08:32:20;99091.50;;;15.88;52.82
86089;BME280;76699;52.232;5.176;2024-03-29T08:34:45;99083.78;;;15.91;52.55
86089;BME280;76699;52.232;5.176;2024-03-29T08:37:11;99084.94;;;16.19;51.80
86089;BME280;76699;52.232;5.176;2024-03-29T08:39:36;99090.66;;;16.86;51.19
86089;BME280;76699;52.232;5.176;2024-03-29T08:42:03;99097.91;;;16.10;51.48
86089;BME280;76699;52.232;5.176;2024-03-29T08:44:33;99114.09;;;15.57;50.70
86089;BME280;76699;52.232;5.176;2024-03-29T08:46:59;99121.28;;;15.86;52.07
86089;BME280;76699;52.232;5.176;2024-03-29T08:49:29;99120.22;;;15.64;51.93
86089;BME280;76699;52.232;5.176;2024-03-29T08:51:56;99114.69;;;15.47;51.81
86089;BME280;76699;52.232;5.176;2024-03-29T08:54:22;99128.31;;;14.12;53.30
86089;BME280;76699;52.232;5.176;2024-03-29T08:56:48;99128.28;;;13.69;55.15
86089;BME280;76699;52.232;5.176;2024-03-29T08:59:13;99118.72;;;13.55;56.33
86089;BME280;76699;52.232;5.176;2024-03-29T09:01:45;99104.75;;;13.78;55.95
86089;BME280;76699;52.232;5.176;2024-03-29T09:04:10;99114.81;;;14.01;55.81
86089;BME280;76699;52.232;5.176;2024-03-29T09:06:39;99112.53;;;14.78;54.34
86089;BME280;76699;52.232;5.176;2024-03-29T09:09:05;99119.69;;;14.84;54.29
86089;BME280;76699;52.232;5.176;2024-03-29T09:11:31;99129.22;;;14.43;54.29
86089;BME280;76699;52.232;5.176;2024-03-29T09:13:56;99134.25;;;13.96;55.41
86089;BME280;76699;52.232;5.176;2024-03-29T09:16:24;99129.06;;;14.44;55.46
86089;BME280;76699;52.232;5.176;2024-03-29T09:18:50;99122.88;;;15.22;54.60
86089;BME280;76699;52.232;5.176;2024-03-29T09:21:16;99124.09;;;14.96;53.80
86089;BME280;76699;52.232;5.176;2024-03-29T09:23:41;99131.75;;;14.93;54.73
86089;BME280;76699;52.232;5.176;2024-03-29T09:26:07;99124.84;;;15.15;54.19
86089;BME280;76699;52.232;5.176;2024-03-29T09:28:32;99134.13;;;15.43;54.13
86089;BME280;76699;52.232;5.176;2024-03-29T09:31:00;99153.13;;;14.99;53.15
86089;BME280;76699;52.232;5.176;2024-03-29T09:33:26;99154.47;;;15.80;52.97
86089;BME280;76699;52.232;5.176;2024-03-29T09:35:51;99159.13;;;15.73;51.46
86089;BME280;76699;52.232;5.176;2024-03-29T09:38:17;99157.50;;;15.42;52.61
86089;BME280;76699;52.232;5.176;2024-03-29T09:40:43;99162.81;;;16.14;51.60
86089;BME280;76699;52.232;5.176;2024-03-29T09:43:10;99159.28;;;16.02;51.56
86089;BME280;76699;52.232;5.176;2024-03-29T09:45:35;99150.66;;;15.28;51.22
86089;BME280;76699;52.232;5.176;2024-03-29T09:48:03;99170.06;;;15.60;51.50
86089;BME280;76699;52.232;5.176;2024-03-29T09:50:30;99163.34;;;14.91;53.07
86089;BME280;76699;52.232;5.176;2024-03-29T09:52:56;99164.50;;;14.83;53.01
86089;BME280;76699;52.232;5.176;2024-03-29T09:55:22;99175.31;;;14.33;54.38
86089;BME280;76699;52.232;5.176;2024-03-29T09:57:48;99177.09;;;14.21;53.93
86089;BME280;76699;52.232;5.176;2024-03-29T10:00:14;99182.31;;;14.09;54.19
86089;BME280;76699;52.232;5.176;2024-03-29T10:02:40;99187.94;;;13.83;54.84
86089;BME280;76699;52.232;5.176;2024-03-29T10:05:08;99180.72;;;13.83;54.96
86089;BME280;76699;52.232;5.176;2024-03-29T10:07:34;99181.66;;;13.33;56.21
86089;BME280;76699;52.232;5.176;2024-03-29T10:10:02;99164.75;;;12.94;58.05
86089;BME280;76699;52.232;5.176;2024-03-29T10:12:29;99165.22;;;13.29;57.16
86089;BME280;76699;52.232;5.176;2024-03-29T10:14:54;99172.28;;;13.80;56.36
86089;BME280;76699;52.232;5.176;2024-03-29T10:17:30;99170.31;;;14.37;55.76
86089;BME280;76699;52.232;5.176;2024-03-29T10:20:00;99167.56;;;14.68;54.27
86089;BME280;76699;52.232;5.176;2024-03-29T10:22:25;99166.59;;;14.81;54.27
86089;BME280;76699;52.232;5.176;2024-03-29T10:24:50;99159.28;;;14.70;54.79
86089;BME280;76699;52.232;5.176;2024-03-29T10:27:16;99173.00;;;14.80;54.37
86089;BME280;76699;52.232;5.176;2024-03-29T10:29:41;99169.53;;;14.91;53.81
86089;BME280;76699;52.232;5.176;2024-03-29T10:32:06;99167.47;;;13.89;54.40
86089;BME280;76699;52.232;5.176;2024-03-29T10:34:32;99175.00;;;14.48;54.57
86089;BME280;76699;52.232;5.176;2024-03-29T10:37:02;99171.09;;;14.99;53.66
86089;BME280;76699;52.232;5.176;2024-03-29T10:39:29;99174.25;;;14.96;52.29
86089;BME280;76699;52.232;5.176;2024-03-29T10:41:56;99176.16;;;15.37;53.05
86089;BME280;76699;52.232;5.176;2024-03-29T10:44:22;99184.47;;;15.77;50.05
86089;BME280;76699;52.232;5.176;2024-03-29T10:46:50;99191.75;;;16.12;51.43
86089;BME280;76699;52.232;5.176;2024-03-29T10:49:17;99182.78;;;16.41;50.92
86089;BME280;76699;52.232;5.176;2024-03-29T10:51:43;99182.19;;;16.74;50.11
86089;BME280;76699;52.232;5.176;2024-03-29T10:54:10;99174.88;;;17.27;49.16
86089;BME280;76699;52.232;5.176;2024-03-29T10:56:36;99181.06;;;17.84;48.32
86089;BME280;76699;52.232;5.176;2024-03-29T10:59:11;99182.84;;;17.95;47.54
86089;BME280;76699;52.232;5.176;2024-03-29T11:01:41;99198.38;;;17.60;47.37
86089;BME280;76699;52.232;5.176;2024-03-29T11:04:13;99197.72;;;17.24;48.06
86089;BME280;76699;52.232;5.176;2024-03-29T11:06:42;99214.34;;;17.33;48.61
86089;BME280;76699;52.232;5.176;2024-03-29T11:09:13;99212.72;;;16.80;47.89
86089;BME280;76699;52.232;5.176;2024-03-29T11:11:41;99217.75;;;16.53;49.13
86089;BME280;76699;52.232;5.176;2024-03-29T11:14:14;99225.22;;;16.28;49.45
86089;BME280;76699;52.232;5.176;2024-03-29T11:16:41;99229.44;;;16.23;49.62
86089;BME280;76699;52.232;5.176;2024-03-29T11:19:16;99209.19;;;16.21;49.66
86089;BME280;76699;52.232;5.176;2024-03-29T11:21:42;99209.91;;;16.28;49.86
86089;BME280;76699;52.232;5.176;2024-03-29T11:24:10;99222.25;;;15.82;50.74
86089;BME280;76699;52.232;5.176;2024-03-29T11:26:36;99213.13;;;15.95;50.78
86089;BME280;76699;52.232;5.176;2024-03-29T11:29:01;99219.13;;;15.97;50.33
86089;BME280;76699;52.232;5.176;2024-03-29T11:31:28;99210.53;;;15.77;50.72
86089;BME280;76699;52.232;5.176;2024-03-29T11:33:57;99209.13;;;15.74;51.19
86089;BME280;76699;52.232;5.176;2024-03-29T11:36:24;99212.38;;;15.64;51.34
86089;BME280;76699;52.232;5.176;2024-03-29T11:38:54;99209.16;;;15.86;50.70
86089;BME280;76699;52.232;5.176;2024-03-29T11:41:23;99209.31;;;16.14;49.82
86089;BME280;76699;52.232;5.176;2024-03-29T11:43:50;99202.06;;;16.62;49.84
86089;BME280;76699;52.232;5.176;2024-03-29T11:46:16;99206.81;;;16.95;49.19
86089;BME280;76699;52.232;5.176;2024-03-29T11:48:41;99205.75;;;17.07;48.55
86089;BME280;76699;52.232;5.176;2024-03-29T11:51:10;99208.00;;;16.99;48.08
86089;BME280;76699;52.232;5.176;2024-03-29T11:53:36;99207.31;;;16.92;47.92
86089;BME280;76699;52.232;5.176;2024-03-29T11:56:03;99200.25;;;17.14;47.91
86089;BME280;76699;52.232;5.176;2024-03-29T11:58:31;99199.94;;;16.99;47.48
86089;BME280;76699;52.232;5.176;2024-03-29T12:00:57;99202.28;;;16.60;47.97
86089;BME280;76699;52.232;5.176;2024-03-29T12:03:24;99213.53;;;16.45;48.03
86089;BME280;76699;52.232;5.176;2024-03-29T12:05:51;99212.13;;;16.66;47.46
86089;BME280;76699;52.232;5.176;2024-03-29T12:08:20;99213.91;;;16.72;47.36
86089;BME280;76699;52.232;5.176;2024-03-29T12:10:45;99225.81;;;16.88;47.41
86089;BME280;76699;52.232;5.176;2024-03-29T12:13:11;99226.06;;;16.75;47.21
86089;BME280;76699;52.232;5.176;2024-03-29T12:15:36;99225.56;;;16.43;47.54
86089;BME280;76699;52.232;5.176;2024-03-29T12:18:03;99234.72;;;16.53;47.62
86089;BME280;76699;52.232;5.176;2024-03-29T12:20:31;99239.28;;;16.53;47.54
86089;BME280;76699;52.232;5.176;2024-03-29T12:23:04;99235.88;;;16.58;47.20
86089;BME280;76699;52.232;5.176;2024-03-29T12:25:30;99235.66;;;16.36;47.83
86089;BME280;76699;52.232;5.176;2024-03-29T12:27:57;99227.78;;;16.46;47.81
86089;BME280;76699;52.232;5.176;2024-03-29T12:30:22;99222.78;;;16.49;47.73
86089;BME280;76699;52.232;5.176;2024-03-29T12:32:48;99219.84;;;16.63;47.47
86089;BME280;76699;52.232;5.176;2024-03-29T12:35:15;99232.72;;;16.72;47.51
86089;BME280;76699;52.232;5.176;2024-03-29T12:37:50;99234.25;;;16.80;46.39
86089;BME280;76699;52.232;5.176;2024-03-29T12:40:17;99230.88;;;16.73;47.40
86089;BME280;76699;52.232;5.176;2024-03-29T12:42:49;99233.41;;;16.44;47.84
86089;BME280;76699;52.232;5.176;2024-03-29T12:45:16;99243.13;;;16.45;47.79
86089;BME280;76699;52.232;5.176;2024-03-29T12:47:42;99229.03;;;15.85;47.59
86089;BME280;76699;52.232;5.176;2024-03-29T12:50:07;99239.25;;;15.46;48.76
86089;BME280;76699;52.232;5.176;2024-03-29T12:52:42;99239.69;;;15.43;49.14
86089;BME280;76699;52.232;5.176;2024-03-29T12:55:07;99233.28;;;15.44;49.36
86089;BME280;76699;52.232;5.176;2024-03-29T12:57:34;99237.31;;;15.83;48.76
86089;BME280;76699;52.232;5.176;2024-03-29T13:00:00;99232.88;;;15.89;48.37
86089;BME280;76699;52.232;5.176;2024-03-29T13:02:26;99230.22;;;16.12;47.99